createdAt,value
2018-09-03T00:01:42.721Z,60.60
2018-09-03T00:04:11.181Z,61.77
2018-09-03T00:06:39.720Z,61.75
2018-09-03T00:09:09.803Z,61.47
2018-09-03T00:11:38.234Z,62.79
2018-09-03T00:14:07.126Z,62.37
2018-09-03T00:16:35.779Z,62.78
2018-09-03T00:19:04.318Z,62.91
2018-09-03T00:21:32.996Z,64.06
2018-09-03T00:24:01.577Z,63.09
2018-09-03T00:26:30.051Z,63.46
2018-09-03T00:28:58.533Z,63.40
2018-09-03T00:31:32.209Z,63.66
2018-09-03T00:34:06.014Z,63.19
2018-09-03T00:36:39.756Z,62.45
2018-09-03T00:39:13.563Z,62.33
2018-09-03T00:41:47.549Z,63.33
2018-09-03T00:44:21.088Z,64.06
2018-09-03T00:46:54.802Z,64.19
2018-09-03T00:49:23.361Z,64.03
2018-09-03T00:51:51.812Z,64.09
2018-09-03T00:54:20.312Z,64.35
2018-09-03T00:56:48.821Z,64.50
2018-09-03T00:59:17.341Z,64.56
2018-09-03T01:01:45.887Z,63.96
2018-09-03T01:04:14.331Z,64.56
2018-09-03T01:06:45.479Z,65.17
2018-09-03T01:09:33.321Z,66.47
2018-09-03T01:12:01.818Z,66.06
2018-09-03T01:14:30.709Z,66.04
2018-09-03T01:16:59.285Z,65.94
2018-09-03T01:19:29.871Z,65.43
2018-09-03T01:21:58.394Z,65.26
2018-09-03T01:24:26.871Z,64.88
2018-09-03T01:26:55.644Z,64.49
2018-09-03T01:29:24.176Z,64.12
2018-09-03T01:31:59.515Z,64.16
2018-09-03T01:34:28.080Z,64.36
2018-09-03T01:36:56.508Z,64.69
2018-09-03T01:39:24.953Z,64.84
2018-09-03T01:41:53.421Z,64.43
2018-09-03T01:44:21.893Z,65.17
2018-09-03T01:46:50.384Z,65.58
2018-09-03T01:49:18.855Z,66.04
2018-09-03T01:51:47.394Z,65.79
2018-09-03T01:54:26.677Z,65.61
2018-09-03T01:56:55.162Z,65.70
2018-09-03T01:59:24.769Z,65.12
2018-09-03T02:01:53.223Z,65.10
2018-09-03T02:04:21.680Z,65.31
2018-09-03T02:06:50.117Z,65.90
2018-09-03T02:09:18.580Z,65.85
2018-09-03T02:11:47.098Z,65.93
2018-09-03T02:14:15.575Z,65.72
2018-09-03T02:16:44.265Z,65.69
2018-09-03T02:19:12.733Z,65.56
2018-09-03T02:21:41.277Z,65.52
2018-09-03T02:24:09.800Z,65.58
2018-09-03T02:26:38.316Z,65.06
2018-09-03T02:29:12.368Z,65.31
2018-09-03T02:31:48.354Z,65.37
2018-09-03T02:34:16.947Z,65.23
2018-09-03T02:36:45.442Z,65.65
2018-09-03T02:39:14.067Z,65.28
2018-09-03T02:41:42.628Z,65.52
2018-09-03T02:44:11.162Z,65.48
2018-09-03T02:46:39.646Z,65.88
2018-09-03T02:49:08.247Z,65.90
2018-09-03T02:51:36.723Z,66.31
2018-09-03T02:54:05.732Z,66.50
2018-09-03T02:56:34.192Z,67.17
2018-09-03T02:59:02.845Z,67.09
2018-09-03T03:01:31.285Z,66.46
2018-09-03T03:03:59.733Z,66.72
2018-09-03T03:06:28.314Z,67.61
2018-09-03T03:08:56.912Z,67.48
2018-09-03T03:11:25.343Z,66.79
2018-09-03T03:13:53.876Z,66.56
2018-09-03T03:16:22.387Z,66.78
2018-09-03T03:18:50.937Z,67.68
2018-09-03T03:21:19.421Z,67.31
2018-09-03T03:23:47.911Z,67.30
2018-09-03T03:26:16.379Z,66.77
2018-09-03T03:28:44.824Z,66.77
2018-09-03T03:31:13.294Z,67.17
2018-09-03T03:33:41.816Z,67.14
2018-09-03T03:36:10.511Z,66.58
2018-09-03T03:38:38.992Z,67.07
2018-09-03T03:41:07.474Z,68.51
2018-09-03T03:43:58.606Z,68.49
2018-09-03T03:46:27.059Z,68.94
2018-09-03T03:48:55.605Z,68.94
2018-09-03T03:51:37.256Z,68.75
2018-09-03T03:54:45.015Z,68.76
2018-09-03T03:57:13.625Z,68.66
2018-09-03T03:59:42.152Z,68.85
2018-09-03T04:02:10.763Z,69.12
2018-09-03T04:05:27.277Z,68.89
2018-09-03T04:07:55.840Z,69.15
2018-09-03T04:10:24.272Z,68.54
2018-09-03T04:12:58.128Z,68.41
2018-09-03T04:15:26.765Z,68.71
2018-09-03T04:17:55.350Z,69.06
2018-09-03T04:20:23.812Z,69.09
2018-09-03T04:22:52.300Z,69.38
2018-09-03T04:25:20.799Z,69.78
2018-09-03T04:27:49.254Z,69.83
2018-09-03T04:30:18.005Z,70.17
2018-09-03T04:32:46.548Z,70.80
2018-09-03T04:35:15.029Z,71.16
2018-09-03T04:37:43.514Z,71.41
2018-09-03T04:40:12.202Z,71.42
2018-09-03T04:42:40.748Z,70.84
2018-09-03T04:45:09.202Z,71.27
2018-09-03T04:47:37.758Z,71.50
2018-09-03T04:50:06.365Z,70.65
2018-09-03T04:52:35.051Z,70.88
2018-09-03T04:55:03.641Z,70.89
2018-09-03T04:57:32.189Z,71.09
2018-09-03T05:00:00.680Z,71.02
2018-09-03T05:02:29.264Z,71.09
2018-09-03T05:04:57.745Z,70.32
2018-09-03T05:07:26.341Z,71.06
2018-09-03T05:10:02.321Z,70.93
2018-09-03T05:12:55.480Z,70.67
2018-09-03T05:15:24.028Z,70.98
2018-09-03T05:17:53.148Z,70.99
2018-09-03T05:20:21.691Z,70.78
2018-09-03T05:22:50.185Z,70.82
2018-09-03T05:25:18.633Z,70.92
2018-09-03T05:27:47.074Z,70.85
2018-09-03T05:30:15.630Z,71.26
2018-09-03T05:32:44.107Z,71.64
2018-09-03T05:35:13.332Z,72.22
2018-09-03T05:37:41.814Z,72.03
2018-09-03T05:40:10.602Z,71.73
2018-09-03T05:42:48.587Z,71.56
2018-09-03T05:45:17.075Z,71.56
2018-09-03T05:47:46.663Z,71.64
2018-09-03T05:50:15.192Z,72.27
2018-09-03T05:52:43.628Z,73.04
2018-09-03T05:55:12.401Z,72.40
2018-09-03T05:57:40.911Z,72.28
2018-09-03T06:00:09.738Z,72.08
2018-09-03T06:02:38.297Z,71.37
2018-09-03T06:05:07.000Z,71.46
2018-09-03T06:07:35.622Z,71.13
2018-09-03T06:10:04.174Z,71.21
2018-09-03T06:12:32.658Z,70.92
2018-09-03T06:15:01.295Z,70.92
2018-09-03T06:17:33.585Z,70.39
2018-09-03T06:20:02.069Z,70.58
2018-09-03T06:22:30.649Z,69.83
2018-09-03T06:24:59.420Z,69.76
2018-09-03T06:27:27.947Z,70.37
2018-09-03T06:29:56.390Z,70.62
2018-09-03T06:32:25.281Z,70.02
2018-09-03T06:35:00.010Z,69.94
2018-09-03T06:37:28.549Z,70.45
2018-09-03T06:39:57.086Z,70.68
2018-09-03T06:42:26.496Z,70.51
2018-09-03T06:44:55.041Z,70.37
2018-09-03T06:47:23.595Z,70.27
2018-09-03T06:49:52.500Z,70.08
2018-09-03T06:52:21.069Z,69.07
2018-09-03T06:54:49.588Z,69.44
2018-09-03T06:57:23.231Z,69.19
2018-09-03T07:00:20.115Z,68.94
2018-09-03T07:02:48.691Z,68.82
2018-09-03T07:05:17.262Z,68.74
2018-09-03T07:07:45.840Z,68.84
2018-09-03T07:10:14.394Z,68.93
2018-09-03T07:12:43.003Z,68.89
2018-09-03T07:15:11.568Z,68.66
2018-09-03T07:17:40.578Z,68.57
2018-09-03T07:20:27.364Z,68.24
2018-09-03T07:22:56.119Z,68.25
2018-09-03T07:25:24.641Z,69.06
2018-09-03T07:27:53.113Z,68.52
2018-09-03T07:30:21.636Z,68.85
2018-09-03T07:32:50.185Z,69.07
2018-09-03T07:35:18.657Z,69.07
2018-09-03T07:37:47.240Z,69.51
2018-09-03T07:40:15.752Z,69.54
2018-09-03T07:42:44.213Z,69.60
2018-09-03T07:45:12.749Z,70.31
2018-09-03T07:47:42.067Z,70.34
2018-09-03T07:50:10.509Z,69.92
2018-09-03T07:52:39.080Z,70.54
2018-09-03T07:55:15.246Z,70.89
2018-09-03T07:57:43.805Z,71.22
2018-09-03T08:00:13.983Z,70.84
2018-09-03T08:02:42.725Z,70.42
2018-09-03T08:05:11.191Z,70.75
2018-09-03T08:07:39.686Z,71.15
2018-09-03T08:10:16.890Z,71.68
2018-09-03T08:12:45.520Z,71.34
2018-09-03T08:15:14.038Z,71.81
2018-09-03T08:17:42.669Z,71.98
2018-09-03T08:20:11.131Z,72.06
2018-09-03T08:22:39.705Z,71.27
2018-09-03T08:25:08.200Z,72.00
2018-09-03T08:27:36.756Z,71.87
2018-09-03T08:30:06.293Z,72.08
2018-09-03T08:32:34.868Z,72.46
2018-09-03T08:35:03.456Z,72.45
2018-09-03T08:37:32.481Z,72.97
2018-09-03T08:40:01.004Z,72.97
2018-09-03T08:42:54.509Z,73.93
2018-09-03T08:45:22.959Z,73.29
2018-09-03T08:47:58.937Z,73.40
2018-09-03T08:50:27.559Z,75.00
2018-09-03T08:52:55.985Z,75.91
2018-09-03T08:55:24.509Z,76.72
2018-09-03T08:57:53.042Z,77.98
2018-09-03T09:00:21.545Z,78.58
2018-09-03T09:02:50.262Z,78.79
2018-09-03T09:05:18.774Z,79.19
2018-09-03T09:07:47.271Z,80.22
2018-09-03T09:10:15.819Z,81.18
2018-09-03T09:12:44.341Z,81.79
2018-09-03T09:15:12.837Z,82.00
2018-09-03T09:17:41.448Z,82.26
2018-09-03T09:20:09.994Z,81.77
2018-09-03T09:22:38.512Z,81.18
2018-09-03T09:25:07.146Z,80.71
2018-09-03T09:27:35.691Z,80.88
2018-09-03T09:30:05.261Z,81.04
2018-09-03T09:32:33.835Z,81.24
2018-09-03T09:35:02.340Z,80.36
2018-09-03T09:37:31.171Z,80.66
2018-09-03T09:39:59.692Z,81.72
2018-09-03T09:42:28.308Z,80.91
2018-09-03T09:44:56.866Z,80.51
2018-09-03T09:47:25.970Z,80.11
2018-09-03T09:49:54.627Z,79.94
2018-09-03T09:52:23.121Z,80.10
2018-09-03T09:54:51.615Z,80.32
2018-09-03T09:57:20.017Z,80.64
2018-09-03T09:59:48.564Z,80.41
2018-09-03T10:02:17.261Z,79.36
2018-09-03T10:04:45.722Z,78.84
2018-09-03T10:07:14.462Z,79.51
2018-09-03T10:09:42.897Z,79.85
2018-09-03T10:12:11.493Z,79.54
2018-09-03T10:14:40.135Z,78.57
2018-09-03T10:17:08.642Z,77.97
2018-09-03T10:19:37.228Z,77.41
2018-09-03T10:22:05.838Z,76.84
2018-09-03T10:24:34.398Z,76.55
2018-09-03T10:27:02.857Z,76.06
2018-09-03T10:29:31.470Z,75.08
2018-09-03T10:31:59.964Z,75.09
2018-09-03T10:34:37.712Z,74.87
2018-09-03T10:37:06.960Z,74.81
2018-09-03T10:39:35.518Z,74.94
2018-09-03T10:42:04.127Z,76.01
2018-09-03T10:44:32.874Z,75.88
2018-09-03T10:47:01.557Z,76.11
2018-09-03T10:49:30.419Z,75.83
2018-09-03T10:51:58.972Z,75.44
2018-09-03T10:54:27.548Z,75.02
2018-09-03T10:56:56.029Z,74.30
2018-09-03T10:59:24.566Z,73.83
2018-09-03T11:01:53.102Z,74.45
2018-09-03T11:04:21.604Z,73.38
2018-09-03T11:06:50.155Z,73.81
2018-09-03T11:09:18.693Z,73.96
2018-09-03T11:11:47.311Z,73.89
2018-09-03T11:14:15.801Z,73.22
2018-09-03T11:16:44.316Z,73.34
2018-09-03T11:19:12.799Z,73.61
2018-09-03T11:21:41.494Z,73.18
2018-09-03T11:24:17.001Z,72.71
2018-09-03T11:26:45.592Z,72.77
2018-09-03T11:29:14.218Z,72.67
2018-09-03T11:31:42.883Z,72.70
2018-09-03T11:34:11.326Z,72.79
2018-09-03T11:36:39.837Z,71.90
2018-09-03T11:39:10.908Z,71.74
2018-09-03T11:41:39.480Z,71.29
2018-09-03T11:44:08.247Z,71.02
2018-09-03T11:46:37.062Z,70.27
2018-09-03T11:49:06.234Z,70.39
2018-09-03T11:51:34.821Z,69.60
2018-09-03T11:54:03.468Z,69.51
2018-09-03T11:56:32.034Z,69.49
2018-09-03T11:59:00.586Z,68.65
2018-09-03T12:01:29.055Z,68.05
2018-09-03T12:03:57.740Z,67.99
2018-09-03T12:06:26.274Z,66.97
2018-09-03T12:08:54.837Z,65.91
2018-09-03T12:11:23.377Z,65.46
2018-09-03T12:13:51.825Z,65.52
2018-09-03T12:16:23.729Z,65.18
2018-09-03T12:18:53.487Z,64.71
2018-09-03T12:21:22.024Z,63.66
2018-09-03T12:24:01.398Z,63.24
2018-09-03T12:26:29.945Z,62.83
2018-09-03T12:28:58.431Z,62.47
2018-09-03T12:31:27.073Z,62.31
2018-09-03T12:33:55.648Z,61.77
2018-09-03T12:36:24.098Z,61.99
2018-09-03T12:38:52.650Z,61.22
2018-09-03T12:41:21.170Z,61.03
2018-09-03T12:43:49.822Z,61.42
2018-09-03T12:46:18.383Z,62.11
2018-09-03T12:48:46.899Z,61.71
2018-09-03T12:51:21.340Z,61.33
2018-09-03T12:53:49.942Z,61.47
2018-09-03T12:56:18.590Z,61.34
2018-09-03T12:58:47.215Z,62.49
2018-09-03T13:01:15.666Z,61.68
2018-09-03T13:03:44.237Z,62.15
2018-09-03T13:06:12.733Z,62.66
2018-09-03T13:08:41.546Z,62.54
2018-09-03T13:11:10.092Z,63.40
2018-09-03T13:13:38.771Z,63.06
2018-09-03T13:16:07.487Z,63.15
2018-09-03T13:18:36.049Z,64.11
2018-09-03T13:21:04.764Z,63.94
2018-09-03T13:23:33.306Z,63.40
2018-09-03T13:26:01.798Z,64.05
2018-09-03T13:28:30.260Z,63.66
2018-09-03T13:30:58.928Z,62.84
2018-09-03T13:33:27.621Z,62.71
2018-09-03T13:36:07.280Z,63.23
2018-09-03T13:38:45.234Z,62.23
2018-09-03T13:41:13.829Z,62.19
2018-09-03T13:43:42.417Z,63.07
2018-09-03T13:46:10.951Z,62.24
2018-09-03T13:48:39.541Z,61.53
2018-09-03T13:51:08.124Z,61.92
2018-09-03T13:53:36.800Z,62.36
2018-09-03T13:56:05.443Z,62.33
2018-09-03T13:58:34.087Z,62.59
2018-09-03T14:01:02.662Z,62.16
2018-09-03T14:03:31.252Z,62.34
2018-09-03T14:05:59.890Z,61.09
2018-09-03T14:08:28.461Z,60.33
2018-09-03T14:10:56.920Z,59.83
2018-09-03T14:13:25.520Z,58.69
2018-09-03T14:15:54.093Z,57.84
2018-09-03T14:18:22.722Z,57.61
2018-09-03T14:20:51.292Z,57.77
2018-09-03T14:23:19.844Z,58.45
2018-09-03T14:25:48.404Z,59.24
2018-09-03T14:28:16.873Z,59.94
2018-09-03T14:30:55.895Z,60.15
2018-09-03T14:33:24.596Z,59.42
2018-09-03T14:35:53.150Z,59.20
2018-09-03T14:38:21.606Z,58.39
2018-09-03T14:40:50.075Z,59.16
2018-09-03T14:43:18.717Z,58.75
2018-09-03T14:45:47.313Z,58.72
2018-09-03T14:48:15.779Z,59.35
2018-09-03T14:50:44.330Z,59.44
2018-09-03T14:53:12.891Z,58.68
2018-09-03T14:55:41.464Z,57.86
2018-09-03T14:58:10.022Z,57.55
2018-09-03T15:00:38.585Z,56.83
2018-09-03T15:03:07.175Z,56.59
2018-09-03T15:05:35.809Z,56.22
2018-09-03T15:08:04.732Z,56.21
2018-09-03T15:10:33.231Z,56.90
2018-09-03T15:13:01.736Z,58.04
2018-09-03T15:15:30.216Z,58.50
2018-09-03T15:17:58.714Z,58.83
2018-09-03T15:20:27.221Z,57.83
2018-09-03T15:22:55.765Z,58.82
2018-09-03T15:25:24.353Z,59.48
2018-09-03T15:27:52.815Z,59.62
2018-09-03T15:30:21.496Z,60.01
2018-09-03T15:32:49.947Z,60.59
2018-09-03T15:35:18.546Z,61.52
2018-09-03T15:37:47.064Z,61.76
2018-09-03T15:40:15.654Z,62.05
2018-09-03T15:42:44.227Z,62.20
2018-09-03T15:45:12.723Z,62.94
2018-09-03T15:47:41.259Z,63.07
2018-09-03T15:50:09.763Z,63.18
2018-09-03T15:52:38.230Z,63.83
2018-09-03T15:55:07.090Z,63.87
2018-09-03T15:57:35.598Z,63.98
2018-09-03T16:00:04.334Z,64.33
2018-09-03T16:02:32.891Z,64.00
2018-09-03T16:05:01.634Z,64.70
2018-09-03T16:07:30.183Z,64.04
2018-09-03T16:09:58.793Z,64.90
2018-09-03T16:12:27.675Z,64.50
2018-09-03T16:15:11.497Z,65.39
2018-09-03T16:17:40.055Z,65.50
2018-09-03T16:20:08.638Z,66.26
2018-09-03T16:22:37.089Z,66.14
2018-09-03T16:25:05.872Z,66.42
2018-09-03T16:27:34.488Z,66.21
2018-09-03T16:30:02.987Z,65.86
2018-09-03T16:32:31.492Z,66.74
2018-09-03T16:35:00.143Z,67.02
2018-09-03T16:37:28.729Z,67.92
2018-09-03T16:39:57.406Z,67.22
2018-09-03T16:42:25.899Z,67.75
2018-09-03T16:44:54.516Z,68.09
2018-09-03T16:47:23.064Z,68.68
2018-09-03T16:49:51.570Z,68.47
2018-09-03T16:52:20.247Z,69.25
2018-09-03T16:54:48.855Z,69.56
2018-09-03T16:57:17.393Z,70.58
2018-09-03T16:59:45.983Z,70.72
2018-09-03T17:02:14.609Z,71.50
2018-09-03T17:04:43.254Z,72.96
2018-09-03T17:07:11.720Z,73.89
2018-09-03T17:09:40.268Z,74.56
2018-09-03T17:12:08.889Z,75.53
2018-09-03T17:14:37.397Z,76.30
2018-09-03T17:17:06.209Z,77.05
2018-09-03T17:19:34.773Z,77.82
2018-09-03T17:25:33.045Z,79.78
2018-09-03T17:28:01.572Z,80.46
2018-09-03T17:30:30.038Z,79.99
2018-09-03T17:32:58.761Z,80.44
2018-09-03T17:35:27.642Z,80.08
2018-09-03T17:37:56.173Z,80.84
2018-09-03T17:40:24.781Z,81.13
2018-09-03T17:42:53.451Z,81.53
2018-09-03T17:45:22.009Z,81.36
2018-09-03T17:47:50.599Z,81.66
2018-09-03T17:50:19.089Z,82.40
2018-09-03T17:52:49.316Z,82.55
2018-09-03T17:55:17.804Z,82.43
2018-09-03T17:57:46.262Z,82.72
2018-09-03T18:00:39.063Z,83.21
2018-09-03T18:03:07.694Z,82.92
2018-09-03T18:05:37.260Z,83.35
2018-09-03T18:08:06.155Z,83.51
2018-09-03T18:10:35.469Z,83.74
2018-09-03T18:13:04.278Z,84.03
2018-09-03T18:15:32.846Z,83.86
2018-09-03T18:18:06.220Z,83.92
2018-09-03T18:20:34.691Z,84.25
2018-09-03T18:23:03.676Z,84.62
2018-09-03T18:26:05.141Z,84.49
2018-09-03T18:28:33.821Z,84.52
2018-09-03T18:31:02.386Z,84.46
2018-09-03T18:33:31.183Z,84.86
2018-09-03T18:35:59.920Z,84.93
2018-09-03T18:38:28.672Z,85.29
2018-09-03T18:40:57.282Z,85.36
2018-09-03T18:43:26.507Z,86.19
2018-09-03T18:45:55.867Z,85.92
2018-09-03T18:48:24.549Z,86.63
2018-09-03T18:50:53.511Z,86.34
2018-09-03T18:53:22.274Z,86.87
2018-09-03T18:55:51.176Z,86.95
2018-09-03T18:58:20.433Z,87.77
2018-09-03T19:00:49.384Z,87.63
2018-09-03T19:03:18.584Z,87.85
2018-09-03T19:05:47.195Z,87.94
2018-09-03T19:08:16.166Z,88.06
2018-09-03T19:10:44.877Z,88.37
2018-09-03T19:13:13.825Z,88.35
2018-09-03T19:15:42.571Z,88.27
2018-09-03T19:18:11.226Z,88.37
2018-09-03T19:20:40.105Z,88.69
2018-09-03T19:23:09.308Z,88.84
2018-09-03T19:25:37.944Z,88.69
2018-09-03T19:28:06.819Z,88.43
2018-09-03T19:30:35.369Z,88.25
2018-09-03T19:33:03.994Z,88.66
2018-09-03T19:35:33.031Z,88.16
2018-09-03T19:38:01.777Z,88.83
2018-09-03T19:40:30.352Z,88.70
2018-09-03T19:42:58.972Z,88.82
2018-09-03T19:45:27.542Z,88.72
2018-09-03T19:47:56.996Z,88.78
2018-09-03T19:50:25.603Z,89.09
2018-09-03T19:52:54.323Z,89.23
2018-09-03T19:55:23.105Z,89.33
2018-09-03T19:57:51.750Z,89.30
2018-09-03T20:00:37.467Z,89.13
2018-09-03T20:03:06.288Z,89.19
2018-09-03T20:05:34.911Z,89.15
2018-09-03T20:08:03.590Z,88.94
2018-09-03T20:10:32.148Z,89.26
2018-09-03T20:13:00.934Z,89.61
2018-09-03T20:15:29.650Z,89.52
2018-09-03T20:17:58.413Z,89.61
2018-09-03T20:23:50.004Z,89.94
2018-09-03T20:26:18.745Z,89.69
2018-09-03T20:28:47.385Z,90.43
2018-09-03T20:31:16.099Z,90.87
2018-09-03T20:33:44.820Z,90.94
2018-09-03T20:36:13.547Z,91.37
2018-09-03T20:38:42.278Z,91.83
2018-09-03T20:41:10.850Z,92.23
2018-09-03T20:43:39.314Z,92.11
2018-09-03T20:46:07.985Z,92.01
2018-09-03T20:48:36.573Z,92.21
2018-09-03T20:51:05.776Z,92.15
2018-09-03T20:53:34.363Z,92.45
2018-09-03T20:56:03.297Z,91.60
2018-09-03T20:58:31.889Z,90.48
2018-09-03T21:01:00.629Z,90.22
2018-09-03T21:03:29.285Z,90.48
2018-09-03T21:05:57.988Z,90.29
2018-09-03T21:08:26.674Z,90.92
2018-09-03T21:10:55.148Z,91.20
2018-09-03T21:13:23.804Z,91.14
2018-09-03T21:15:52.854Z,91.31
2018-09-03T21:18:21.365Z,92.02
2018-09-03T21:24:18.003Z,91.73
2018-09-03T21:26:46.596Z,91.79
2018-09-03T21:29:16.004Z,92.21
2018-09-03T21:31:44.491Z,91.91
2018-09-03T21:34:13.549Z,91.92
2018-09-03T21:36:42.573Z,92.48
2018-09-03T21:39:11.295Z,91.98
2018-09-03T21:41:41.004Z,92.29
2018-09-03T21:44:09.908Z,93.11
2018-09-03T21:46:38.552Z,93.10
2018-09-03T21:49:07.146Z,92.97
2018-09-03T21:51:35.660Z,92.94
2018-09-03T21:54:08.266Z,92.97
2018-09-03T21:56:36.886Z,92.85
2018-09-03T21:59:05.458Z,92.68
2018-09-03T22:01:34.044Z,93.08
2018-09-03T22:04:02.572Z,93.33
2018-09-03T22:06:32.168Z,93.38
2018-09-03T22:09:01.438Z,93.71
2018-09-03T22:11:29.913Z,93.67
2018-09-03T22:13:58.466Z,94.21
2018-09-03T22:16:27.019Z,93.68
2018-09-03T22:18:55.631Z,94.42
2018-09-03T22:21:24.207Z,94.53
2018-09-03T22:23:52.804Z,94.74
2018-09-03T22:26:21.384Z,94.31
2018-09-03T22:28:49.990Z,94.46
2018-09-03T22:31:18.552Z,94.56
2018-09-03T22:33:47.193Z,94.76
2018-09-03T22:36:15.705Z,94.68
2018-09-03T22:38:44.505Z,95.17
2018-09-03T22:41:13.081Z,95.52
2018-09-03T22:44:23.324Z,95.74
2018-09-03T22:46:51.858Z,96.04
2018-09-03T22:49:20.420Z,96.26
2018-09-03T22:51:49.123Z,96.86
2018-09-03T22:54:17.683Z,96.73
2018-09-03T22:56:46.420Z,97.05
2018-09-03T22:59:15.115Z,96.57
2018-09-03T23:01:43.683Z,97.10
2018-09-03T23:04:12.116Z,97.10
2018-09-03T23:06:40.594Z,97.06
2018-09-03T23:09:09.069Z,97.02
2018-09-03T23:11:37.545Z,96.92
2018-09-03T23:14:09.673Z,96.40
2018-09-03T23:16:38.446Z,96.85
2018-09-03T23:19:07.148Z,96.57
2018-09-03T23:21:35.693Z,96.12
2018-09-03T23:24:04.327Z,96.43
2018-09-03T23:26:32.835Z,96.12
2018-09-03T23:29:01.345Z,96.15
2018-09-03T23:31:57.350Z,96.05
2018-09-03T23:34:25.894Z,96.13
2018-09-03T23:37:12.756Z,95.76
2018-09-03T23:39:41.160Z,96.17
2018-09-03T23:42:09.620Z,96.04
2018-09-03T23:44:38.098Z,96.52
2018-09-03T23:47:06.701Z,96.36
2018-09-03T23:49:35.181Z,96.34
2018-09-03T23:52:03.768Z,95.34
2018-09-03T23:54:32.280Z,95.40
2018-09-03T23:57:03.292Z,95.64
2018-09-03T23:59:31.940Z,95.68
